sensor_id;sensor_type;location;lat;lon;timestamp;temperature;humidity
28010;DHT22;15334;49.494;8.410;2023-05-10T00:00:42;14.50;99.90
28010;DHT22;15334;49.494;8.410;2023-05-10T00:03:10;14.50;99.90
28010;DHT22;15334;49.494;8.410;2023-05-10T00:05:38;14.50;99.90
28010;DHT22;15334;49.494;8.410;2023-05-10T00:08:07;14.50;99.90
28010;DHT22;15334;49.494;8.410;2023-05-10T00:10:36;14.40;99.90
28010;DHT22;15334;49.494;8.410;2023-05-10T00:13:04;14.50;99.90
28010;DHT22;15334;49.494;8.410;2023-05-10T00:15:32;14.40;99.90
28010;DHT22;15334;49.494;8.410;2023-05-10T00:18:01;14.40;99.90
28010;DHT22;15334;49.494;8.410;2023-05-10T00:20:29;14.30;99.90
28010;DHT22;15334;49.494;8.410;2023-05-10T00:22:57;14.30;99.90
28010;DHT22;15334;49.494;8.410;2023-05-10T00:25:27;14.30;99.90
28010;DHT22;15334;49.494;8.410;2023-05-10T00:27:55;14.30;99.90
28010;DHT22;15334;49.494;8.410;2023-05-10T00:30:24;14.30;99.90
28010;DHT22;15334;49.494;8.410;2023-05-10T00:32:52;14.30;99.90
28010;DHT22;15334;49.494;8.410;2023-05-10T00:35:20;14.30;99.90
28010;DHT22;15334;49.494;8.410;2023-05-10T00:37:48;14.30;99.90
28010;DHT22;15334;49.494;8.410;2023-05-10T00:40:16;14.30;99.90
28010;DHT22;15334;49.494;8.410;2023-05-10T00:42:46;14.20;99.90
28010;DHT22;15334;49.494;8.410;2023-05-10T00:45:14;14.20;99.90
28010;DHT22;15334;49.494;8.410;2023-05-10T00:47:42;14.10;99.90
28010;DHT22;15334;49.494;8.410;2023-05-10T00:50:10;14.00;99.90
28010;DHT22;15334;49.494;8.410;2023-05-10T00:52:39;14.00;99.90
28010;DHT22;15334;49.494;8.410;2023-05-10T00:55:08;14.00;99.90
28010;DHT22;15334;49.494;8.410;2023-05-10T00:57:37;13.90;99.90
28010;DHT22;15334;49.494;8.410;2023-05-10T01:00:08;13.90;99.90
28010;DHT22;15334;49.494;8.410;2023-05-10T01:02:36;13.90;99.90
28010;DHT22;15334;49.494;8.410;2023-05-10T01:05:05;13.90;99.90
28010;DHT22;15334;49.494;8.410;2023-05-10T01:07:33;13.90;99.90
28010;DHT22;15334;49.494;8.410;2023-05-10T01:10:01;14.00;99.90
28010;DHT22;15334;49.494;8.410;2023-05-10T01:12:30;14.00;99.90
28010;DHT22;15334;49.494;8.410;2023-05-10T01:14:59;14.00;99.90
28010;DHT22;15334;49.494;8.410;2023-05-10T01:17:30;14.00;99.90
28010;DHT22;15334;49.494;8.410;2023-05-10T01:19:58;13.90;99.90
28010;DHT22;15334;49.494;8.410;2023-05-10T01:22:42;14.00;99.90
28010;DHT22;15334;49.494;8.410;2023-05-10T01:25:35;14.00;99.90
28010;DHT22;15334;49.494;8.410;2023-05-10T01:28:31;14.00;99.90
28010;DHT22;15334;49.494;8.410;2023-05-10T01:31:13;13.90;99.90
28010;DHT22;15334;49.494;8.410;2023-05-10T01:33:47;13.90;99.90
28010;DHT22;15334;49.494;8.410;2023-05-10T01:36:21;13.90;99.90
28010;DHT22;15334;49.494;8.410;2023-05-10T01:38:58;13.90;99.90
28010;DHT22;15334;49.494;8.410;2023-05-10T01:41:35;13.90;99.90
28010;DHT22;15334;49.494;8.410;2023-05-10T01:44:09;13.90;99.90
28010;DHT22;15334;49.494;8.410;2023-05-10T01:46:40;13.80;99.90
28010;DHT22;15334;49.494;8.410;2023-05-10T01:49:15;13.80;99.90
28010;DHT22;15334;49.494;8.410;2023-05-10T01:51:49;13.80;99.90
28010;DHT22;15334;49.494;8.410;2023-05-10T01:54:21;13.80;99.90
28010;DHT22;15334;49.494;8.410;2023-05-10T01:56:55;13.80;99.90
28010;DHT22;15334;49.494;8.410;2023-05-10T01:59:29;13.80;99.90
28010;DHT22;15334;49.494;8.410;2023-05-10T02:01:59;13.80;99.90
28010;DHT22;15334;49.494;8.410;2023-05-10T02:04:30;13.80;99.90
28010;DHT22;15334;49.494;8.410;2023-05-10T02:07:00;13.80;99.90
28010;DHT22;15334;49.494;8.410;2023-05-10T02:09:30;13.80;99.90
28010;DHT22;15334;49.494;8.410;2023-05-10T02:12:02;13.70;99.90
28010;DHT22;15334;49.494;8.410;2023-05-10T02:14:34;13.70;99.90
28010;DHT22;15334;49.494;8.410;2023-05-10T02:17:04;13.70;99.90
28010;DHT22;15334;49.494;8.410;2023-05-10T02:19:35;13.80;99.90
28010;DHT22;15334;49.494;8.410;2023-05-10T02:22:08;13.70;99.90
28010;DHT22;15334;49.494;8.410;2023-05-10T02:24:37;13.70;99.90
28010;DHT22;15334;49.494;8.410;2023-05-10T02:27:07;13.70;99.90
28010;DHT22;15334;49.494;8.410;2023-05-10T02:29:36;13.70;99.90
28010;DHT22;15334;49.494;8.410;2023-05-10T02:32:07;13.70;99.90
28010;DHT22;15334;49.494;8.410;2023-05-10T02:34:38;13.60;99.90
28010;DHT22;15334;49.494;8.410;2023-05-10T02:37:07;13.60;99.90
28010;DHT22;15334;49.494;8.410;2023-05-10T02:39:37;13.60;99.90
28010;DHT22;15334;49.494;8.410;2023-05-10T02:42:13;13.60;99.90
28010;DHT22;15334;49.494;8.410;2023-05-10T02:44:42;13.60;99.90
28010;DHT22;15334;49.494;8.410;2023-05-10T02:47:11;13.50;99.90
28010;DHT22;15334;49.494;8.410;2023-05-10T02:49:40;13.50;99.90
28010;DHT22;15334;49.494;8.410;2023-05-10T02:52:09;13.50;99.90
28010;DHT22;15334;49.494;8.410;2023-05-10T02:54:45;13.50;99.90
28010;DHT22;15334;49.494;8.410;2023-05-10T02:57:16;13.50;99.90
28010;DHT22;15334;49.494;8.410;2023-05-10T02:59:46;13.60;99.90
28010;DHT22;15334;49.494;8.410;2023-05-10T03:02:14;13.60;99.90
28010;DHT22;15334;49.494;8.410;2023-05-10T03:04:44;13.70;99.90
28010;DHT22;15334;49.494;8.410;2023-05-10T03:07:12;13.70;99.90
28010;DHT22;15334;49.494;8.410;2023-05-10T03:09:41;13.70;99.90
28010;DHT22;15334;49.494;8.410;2023-05-10T03:12:13;13.80;99.90
28010;DHT22;15334;49.494;8.410;2023-05-10T03:14:52;13.80;99.90
28010;DHT22;15334;49.494;8.410;2023-05-10T03:17:25;13.80;99.90
28010;DHT22;15334;49.494;8.410;2023-05-10T03:20:03;13.80;99.90
28010;DHT22;15334;49.494;8.410;2023-05-10T03:22:36;13.80;99.90
28010;DHT22;15334;49.494;8.410;2023-05-10T03:25:06;13.80;99.90
28010;DHT22;15334;49.494;8.410;2023-05-10T03:27:36;13.80;99.90
28010;DHT22;15334;49.494;8.410;2023-05-10T03:30:09;13.70;99.90
28010;DHT22;15334;49.494;8.410;2023-05-10T03:32:38;13.70;99.90
28010;DHT22;15334;49.494;8.410;2023-05-10T03:35:08;13.60;99.90
28010;DHT22;15334;49.494;8.410;2023-05-10T03:37:36;13.60;99.90
28010;DHT22;15334;49.494;8.410;2023-05-10T03:40:05;13.60;99.90
28010;DHT22;15334;49.494;8.410;2023-05-10T03:42:34;13.60;99.90
28010;DHT22;15334;49.494;8.410;2023-05-10T03:45:02;13.60;99.90
28010;DHT22;15334;49.494;8.410;2023-05-10T03:47:30;13.60;99.90
28010;DHT22;15334;49.494;8.410;2023-05-10T03:49:59;13.60;99.90
28010;DHT22;15334;49.494;8.410;2023-05-10T03:52:28;13.60;99.90
28010;DHT22;15334;49.494;8.410;2023-05-10T03:54:56;13.50;99.90
28010;DHT22;15334;49.494;8.410;2023-05-10T03:57:24;13.50;99.90
28010;DHT22;15334;49.494;8.410;2023-05-10T03:59:52;13.40;99.90
28010;DHT22;15334;49.494;8.410;2023-05-10T04:02:21;13.40;99.90
28010;DHT22;15334;49.494;8.410;2023-05-10T04:04:49;13.30;99.90
28010;DHT22;15334;49.494;8.410;2023-05-10T04:07:17;13.20;99.90
28010;DHT22;15334;49.494;8.410;2023-05-10T04:09:47;13.20;99.90
28010;DHT22;15334;49.494;8.410;2023-05-10T04:12:15;13.10;99.90
28010;DHT22;15334;49.494;8.410;2023-05-10T04:14:43;13.10;99.90
28010;DHT22;15334;49.494;8.410;2023-05-10T04:17:12;13.00;99.90
28010;DHT22;15334;49.494;8.410;2023-05-10T04:19:40;13.00;99.90
28010;DHT22;15334;49.494;8.410;2023-05-10T04:22:08;13.00;99.90
28010;DHT22;15334;49.494;8.410;2023-05-10T04:24:36;13.00;99.90
28010;DHT22;15334;49.494;8.410;2023-05-10T04:27:05;13.00;99.90
28010;DHT22;15334;49.494;8.410;2023-05-10T04:29:34;13.00;99.90
28010;DHT22;15334;49.494;8.410;2023-05-10T04:32:02;13.00;99.90
28010;DHT22;15334;49.494;8.410;2023-05-10T04:34:31;13.00;99.90
28010;DHT22;15334;49.494;8.410;2023-05-10T04:37:00;12.90;99.90
28010;DHT22;15334;49.494;8.410;2023-05-10T04:39:28;12.90;99.90
28010;DHT22;15334;49.494;8.410;2023-05-10T04:41:57;12.90;99.90
28010;DHT22;15334;49.494;8.410;2023-05-10T04:44:26;12.90;99.90
28010;DHT22;15334;49.494;8.410;2023-05-10T04:46:54;12.90;99.90
28010;DHT22;15334;49.494;8.410;2023-05-10T04:49:23;12.90;99.90
28010;DHT22;15334;49.494;8.410;2023-05-10T04:51:51;12.80;99.90
28010;DHT22;15334;49.494;8.410;2023-05-10T04:54:19;12.90;99.90
28010;DHT22;15334;49.494;8.410;2023-05-10T04:56:47;12.90;99.90
28010;DHT22;15334;49.494;8.410;2023-05-10T04:59:15;12.90;99.90
28010;DHT22;15334;49.494;8.410;2023-05-10T05:01:44;12.90;99.90
28010;DHT22;15334;49.494;8.410;2023-05-10T05:04:13;13.00;99.90
28010;DHT22;15334;49.494;8.410;2023-05-10T05:06:41;13.00;99.90
28010;DHT22;15334;49.494;8.410;2023-05-10T05:09:09;13.10;99.90
28010;DHT22;15334;49.494;8.410;2023-05-10T05:11:38;13.10;99.90
28010;DHT22;15334;49.494;8.410;2023-05-10T05:14:07;13.10;99.90
28010;DHT22;15334;49.494;8.410;2023-05-10T05:16:35;13.10;99.90
28010;DHT22;15334;49.494;8.410;2023-05-10T05:19:05;13.10;99.90
28010;DHT22;15334;49.494;8.410;2023-05-10T05:21:33;13.20;99.90
28010;DHT22;15334;49.494;8.410;2023-05-10T05:24:01;13.20;99.90
28010;DHT22;15334;49.494;8.410;2023-05-10T05:26:29;13.20;99.90
28010;DHT22;15334;49.494;8.410;2023-05-10T05:28:57;13.30;99.90
28010;DHT22;15334;49.494;8.410;2023-05-10T05:31:25;13.40;99.90
28010;DHT22;15334;49.494;8.410;2023-05-10T05:33:53;13.50;99.90
28010;DHT22;15334;49.494;8.410;2023-05-10T05:36:22;13.50;99.90
28010;DHT22;15334;49.494;8.410;2023-05-10T05:38:51;13.60;99.90
28010;DHT22;15334;49.494;8.410;2023-05-10T05:41:19;13.70;99.90
28010;DHT22;15334;49.494;8.410;2023-05-10T05:43:48;13.80;99.90
28010;DHT22;15334;49.494;8.410;2023-05-10T05:46:16;13.80;99.90
28010;DHT22;15334;49.494;8.410;2023-05-10T05:48:44;13.90;99.90
28010;DHT22;15334;49.494;8.410;2023-05-10T05:51:12;14.00;99.90
28010;DHT22;15334;49.494;8.410;2023-05-10T05:53:42;14.00;99.90
28010;DHT22;15334;49.494;8.410;2023-05-10T05:56:10;14.10;99.90
28010;DHT22;15334;49.494;8.410;2023-05-10T05:58:38;14.10;99.90
28010;DHT22;15334;49.494;8.410;2023-05-10T06:01:06;14.20;99.90
28010;DHT22;15334;49.494;8.410;2023-05-10T06:03:35;14.20;99.90
28010;DHT22;15334;49.494;8.410;2023-05-10T06:06:03;14.20;99.90
28010;DHT22;15334;49.494;8.410;2023-05-10T06:08:32;14.20;99.90
28010;DHT22;15334;49.494;8.410;2023-05-10T06:11:02;14.30;99.90
28010;DHT22;15334;49.494;8.410;2023-05-10T06:13:30;14.40;99.90
28010;DHT22;15334;49.494;8.410;2023-05-10T06:16:02;14.40;99.90
28010;DHT22;15334;49.494;8.410;2023-05-10T06:18:30;14.50;99.90
28010;DHT22;15334;49.494;8.410;2023-05-10T06:20:58;14.50;99.90
28010;DHT22;15334;49.494;8.410;2023-05-10T06:23:26;14.60;99.90
28010;DHT22;15334;49.494;8.410;2023-05-10T06:25:55;14.60;99.90
28010;DHT22;15334;49.494;8.410;2023-05-10T06:28:24;14.60;99.90
28010;DHT22;15334;49.494;8.410;2023-05-10T06:30:53;14.70;99.90
28010;DHT22;15334;49.494;8.410;2023-05-10T06:33:21;14.80;99.90
28010;DHT22;15334;49.494;8.410;2023-05-10T06:35:49;14.90;99.90
28010;DHT22;15334;49.494;8.410;2023-05-10T06:38:17;14.90;99.90
28010;DHT22;15334;49.494;8.410;2023-05-10T06:40:45;15.00;99.90
28010;DHT22;15334;49.494;8.410;2023-05-10T06:43:13;15.10;99.90
28010;DHT22;15334;49.494;8.410;2023-05-10T06:45:43;15.10;99.90
28010;DHT22;15334;49.494;8.410;2023-05-10T06:48:11;15.10;99.90
28010;DHT22;15334;49.494;8.410;2023-05-10T06:50:39;15.20;99.90
28010;DHT22;15334;49.494;8.410;2023-05-10T06:53:07;15.10;99.90
28010;DHT22;15334;49.494;8.410;2023-05-10T06:55:35;15.10;99.90
28010;DHT22;15334;49.494;8.410;2023-05-10T06:58:03;15.10;99.90
28010;DHT22;15334;49.494;8.410;2023-05-10T07:00:31;15.20;99.90
28010;DHT22;15334;49.494;8.410;2023-05-10T07:03:00;15.20;99.90
28010;DHT22;15334;49.494;8.410;2023-05-10T07:05:28;15.30;99.90
28010;DHT22;15334;49.494;8.410;2023-05-10T07:07:57;15.30;99.90
28010;DHT22;15334;49.494;8.410;2023-05-10T07:10:25;15.30;99.90
28010;DHT22;15334;49.494;8.410;2023-05-10T07:12:53;15.40;99.90
28010;DHT22;15334;49.494;8.410;2023-05-10T07:15:22;15.50;99.90
28010;DHT22;15334;49.494;8.410;2023-05-10T07:17:50;15.70;99.90
28010;DHT22;15334;49.494;8.410;2023-05-10T07:20:20;15.80;99.90
28010;DHT22;15334;49.494;8.410;2023-05-10T07:22:48;16.00;99.90
28010;DHT22;15334;49.494;8.410;2023-05-10T07:25:16;16.00;99.90
28010;DHT22;15334;49.494;8.410;2023-05-10T07:27:44;16.10;99.90
28010;DHT22;15334;49.494;8.410;2023-05-10T07:30:15;16.20;99.90
28010;DHT22;15334;49.494;8.410;2023-05-10T07:32:44;16.20;99.90
28010;DHT22;15334;49.494;8.410;2023-05-10T07:35:12;16.30;99.90
28010;DHT22;15334;49.494;8.410;2023-05-10T07:37:42;16.40;99.90
28010;DHT22;15334;49.494;8.410;2023-05-10T07:40:10;16.40;99.90
28010;DHT22;15334;49.494;8.410;2023-05-10T07:42:38;16.40;99.90
28010;DHT22;15334;49.494;8.410;2023-05-10T07:45:07;16.50;99.90
28010;DHT22;15334;49.494;8.410;2023-05-10T07:47:36;16.50;99.90
28010;DHT22;15334;49.494;8.410;2023-05-10T07:50:05;16.50;99.90
28010;DHT22;15334;49.494;8.410;2023-05-10T07:52:33;16.60;99.90
28010;DHT22;15334;49.494;8.410;2023-05-10T07:55:03;16.60;99.90
28010;DHT22;15334;49.494;8.410;2023-05-10T07:57:32;16.50;99.90
28010;DHT22;15334;49.494;8.410;2023-05-10T08:00:00;16.40;99.90
28010;DHT22;15334;49.494;8.410;2023-05-10T08:02:28;16.40;99.90
28010;DHT22;15334;49.494;8.410;2023-05-10T08:04:56;16.30;99.90
28010;DHT22;15334;49.494;8.410;2023-05-10T08:07:24;16.40;99.90
28010;DHT22;15334;49.494;8.410;2023-05-10T08:09:52;16.30;99.90
28010;DHT22;15334;49.494;8.410;2023-05-10T08:12:22;16.30;99.90
28010;DHT22;15334;49.494;8.410;2023-05-10T08:14:49;16.40;99.90
28010;DHT22;15334;49.494;8.410;2023-05-10T08:17:18;16.50;99.90
28010;DHT22;15334;49.494;8.410;2023-05-10T08:19:47;16.60;99.90
28010;DHT22;15334;49.494;8.410;2023-05-10T08:22:15;16.80;99.90
28010;DHT22;15334;49.494;8.410;2023-05-10T08:24:43;16.90;99.90
28010;DHT22;15334;49.494;8.410;2023-05-10T08:27:12;16.90;99.90
28010;DHT22;15334;49.494;8.410;2023-05-10T08:29:41;17.00;99.90
28010;DHT22;15334;49.494;8.410;2023-05-10T08:32:16;16.80;99.90
28010;DHT22;15334;49.494;8.410;2023-05-10T08:34:44;16.90;99.90
28010;DHT22;15334;49.494;8.410;2023-05-10T08:37:12;16.90;99.90
28010;DHT22;15334;49.494;8.410;2023-05-10T08:39:40;16.80;99.90
28010;DHT22;15334;49.494;8.410;2023-05-10T08:42:09;16.60;99.90
28010;DHT22;15334;49.494;8.410;2023-05-10T08:44:37;16.50;99.90
28010;DHT22;15334;49.494;8.410;2023-05-10T08:47:07;16.40;99.90
28010;DHT22;15334;49.494;8.410;2023-05-10T08:49:37;16.30;99.90
28010;DHT22;15334;49.494;8.410;2023-05-10T08:52:05;16.20;99.90
28010;DHT22;15334;49.494;8.410;2023-05-10T08:54:35;16.20;99.90
28010;DHT22;15334;49.494;8.410;2023-05-10T08:57:03;16.10;99.90
28010;DHT22;15334;49.494;8.410;2023-05-10T08:59:32;16.20;99.90
28010;DHT22;15334;49.494;8.410;2023-05-10T09:02:00;16.10;99.90
28010;DHT22;15334;49.494;8.410;2023-05-10T09:04:30;16.10;99.90
28010;DHT22;15334;49.494;8.410;2023-05-10T09:06:59;16.10;99.90
28010;DHT22;15334;49.494;8.410;2023-05-10T09:09:28;16.20;99.90
28010;DHT22;15334;49.494;8.410;2023-05-10T09:11:56;16.20;99.90
28010;DHT22;15334;49.494;8.410;2023-05-10T09:14:25;16.40;99.90
28010;DHT22;15334;49.494;8.410;2023-05-10T09:16:54;16.70;99.90
28010;DHT22;15334;49.494;8.410;2023-05-10T09:19:22;16.90;99.90
28010;DHT22;15334;49.494;8.410;2023-05-10T09:21:52;17.10;99.90
28010;DHT22;15334;49.494;8.410;2023-05-10T09:24:25;17.30;99.90
28010;DHT22;15334;49.494;8.410;2023-05-10T09:26:53;17.60;99.90
28010;DHT22;15334;49.494;8.410;2023-05-10T09:29:21;17.90;99.90
28010;DHT22;15334;49.494;8.410;2023-05-10T09:31:51;18.10;99.90
28010;DHT22;15334;49.494;8.410;2023-05-10T09:34:28;18.30;99.90
28010;DHT22;15334;49.494;8.410;2023-05-10T09:37:00;18.30;99.90
28010;DHT22;15334;49.494;8.410;2023-05-10T09:39:32;18.20;99.90
28010;DHT22;15334;49.494;8.410;2023-05-10T09:42:03;18.10;99.90
28010;DHT22;15334;49.494;8.410;2023-05-10T09:44:32;17.80;99.90
28010;DHT22;15334;49.494;8.410;2023-05-10T09:47:01;17.60;99.90
28010;DHT22;15334;49.494;8.410;2023-05-10T09:49:29;17.30;99.90
28010;DHT22;15334;49.494;8.410;2023-05-10T09:52:03;17.10;99.90
28010;DHT22;15334;49.494;8.410;2023-05-10T09:54:52;16.90;99.90
28010;DHT22;15334;49.494;8.410;2023-05-10T09:57:21;16.70;99.90
28010;DHT22;15334;49.494;8.410;2023-05-10T09:59:49;16.50;99.90
28010;DHT22;15334;49.494;8.410;2023-05-10T10:02:17;16.40;99.90
28010;DHT22;15334;49.494;8.410;2023-05-10T10:04:49;16.40;99.90
28010;DHT22;15334;49.494;8.410;2023-05-10T10:07:24;16.40;99.90
28010;DHT22;15334;49.494;8.410;2023-05-10T10:09:53;16.30;99.90
28010;DHT22;15334;49.494;8.410;2023-05-10T10:12:21;16.30;99.90
28010;DHT22;15334;49.494;8.410;2023-05-10T10:14:49;16.20;99.90
28010;DHT22;15334;49.494;8.410;2023-05-10T10:17:19;16.20;99.90
28010;DHT22;15334;49.494;8.410;2023-05-10T10:19:48;16.20;99.90
28010;DHT22;15334;49.494;8.410;2023-05-10T10:22:17;16.30;99.90
28010;DHT22;15334;49.494;8.410;2023-05-10T10:24:46;16.60;99.90
28010;DHT22;15334;49.494;8.410;2023-05-10T10:27:21;16.70;99.90
28010;DHT22;15334;49.494;8.410;2023-05-10T10:30:00;17.00;99.90
28010;DHT22;15334;49.494;8.410;2023-05-10T10:32:35;17.50;99.90
28010;DHT22;15334;49.494;8.410;2023-05-10T10:35:09;17.90;99.90
28010;DHT22;15334;49.494;8.410;2023-05-10T10:37:45;18.20;99.90
28010;DHT22;15334;49.494;8.410;2023-05-10T10:40:28;17.90;99.90
28010;DHT22;15334;49.494;8.410;2023-05-10T10:43:21;18.00;99.90
28010;DHT22;15334;49.494;8.410;2023-05-10T10:46:11;18.10;99.90
28010;DHT22;15334;49.494;8.410;2023-05-10T10:48:41;18.30;99.90
28010;DHT22;15334;49.494;8.410;2023-05-10T10:51:09;18.50;99.90
28010;DHT22;15334;49.494;8.410;2023-05-10T10:53:40;18.90;99.90
28010;DHT22;15334;49.494;8.410;2023-05-10T10:56:11;19.20;99.90
28010;DHT22;15334;49.494;8.410;2023-05-10T10:58:42;19.30;99.90
28010;DHT22;15334;49.494;8.410;2023-05-10T11:01:17;19.20;99.90
28010;DHT22;15334;49.494;8.410;2023-05-10T11:04:16;19.30;99.90
28010;DHT22;15334;49.494;8.410;2023-05-10T11:06:45;19.60;99.90
28010;DHT22;15334;49.494;8.410;2023-05-10T11:09:13;19.60;99.90
28010;DHT22;15334;49.494;8.410;2023-05-10T11:11:54;19.90;99.90
28010;DHT22;15334;49.494;8.410;2023-05-10T11:14:22;20.00;99.90
28010;DHT22;15334;49.494;8.410;2023-05-10T11:16:51;20.20;99.90
28010;DHT22;15334;49.494;8.410;2023-05-10T11:19:19;20.70;99.90
28010;DHT22;15334;49.494;8.410;2023-05-10T11:21:48;21.50;99.90
28010;DHT22;15334;49.494;8.410;2023-05-10T11:24:19;22.50;99.90
28010;DHT22;15334;49.494;8.410;2023-05-10T11:26:49;23.00;99.90
28010;DHT22;15334;49.494;8.410;2023-05-10T11:29:19;23.60;99.90
28010;DHT22;15334;49.494;8.410;2023-05-10T11:31:48;23.40;99.90
28010;DHT22;15334;49.494;8.410;2023-05-10T11:34:26;23.50;99.90
28010;DHT22;15334;49.494;8.410;2023-05-10T11:36:55;23.60;99.50
28010;DHT22;15334;49.494;8.410;2023-05-10T11:39:26;22.90;98.10
28010;DHT22;15334;49.494;8.410;2023-05-10T11:41:55;22.70;99.90
28010;DHT22;15334;49.494;8.410;2023-05-10T11:44:29;23.40;99.90
28010;DHT22;15334;49.494;8.410;2023-05-10T11:46:58;23.20;99.50
28010;DHT22;15334;49.494;8.410;2023-05-10T11:49:26;23.00;98.90
28010;DHT22;15334;49.494;8.410;2023-05-10T11:52:04;23.50;99.90
28010;DHT22;15334;49.494;8.410;2023-05-10T11:54:33;23.70;99.90
28010;DHT22;15334;49.494;8.410;2023-05-10T11:57:02;23.10;99.90
28010;DHT22;15334;49.494;8.410;2023-05-10T11:59:31;23.20;99.90
28010;DHT22;15334;49.494;8.410;2023-05-10T12:01:59;23.00;99.90
28010;DHT22;15334;49.494;8.410;2023-05-10T12:04:27;23.10;99.90
28010;DHT22;15334;49.494;8.410;2023-05-10T12:06:56;22.70;99.90
28010;DHT22;15334;49.494;8.410;2023-05-10T12:09:24;22.20;99.90
28010;DHT22;15334;49.494;8.410;2023-05-10T12:12:08;21.80;99.90
28010;DHT22;15334;49.494;8.410;2023-05-10T12:14:38;21.60;99.90
28010;DHT22;15334;49.494;8.410;2023-05-10T12:17:06;21.10;99.90
28010;DHT22;15334;49.494;8.410;2023-05-10T12:19:37;20.90;99.90
28010;DHT22;15334;49.494;8.410;2023-05-10T12:22:05;20.60;99.90
28010;DHT22;15334;49.494;8.410;2023-05-10T12:24:34;20.50;99.90
28010;DHT22;15334;49.494;8.410;2023-05-10T12:27:04;20.30;99.90
28010;DHT22;15334;49.494;8.410;2023-05-10T12:29:34;20.50;99.90
28010;DHT22;15334;49.494;8.410;2023-05-10T12:32:04;20.60;99.90
28010;DHT22;15334;49.494;8.410;2023-05-10T12:34:33;20.60;99.90
28010;DHT22;15334;49.494;8.410;2023-05-10T12:37:02;20.70;99.90
28010;DHT22;15334;49.494;8.410;2023-05-10T12:39:40;20.90;99.90
28010;DHT22;15334;49.494;8.410;2023-05-10T12:42:08;20.80;99.90
28010;DHT22;15334;49.494;8.410;2023-05-10T12:44:36;20.60;99.90
28010;DHT22;15334;49.494;8.410;2023-05-10T12:47:06;20.50;99.90
28010;DHT22;15334;49.494;8.410;2023-05-10T12:49:34;20.40;99.90
28010;DHT22;15334;49.494;8.410;2023-05-10T12:52:02;20.10;99.90
28010;DHT22;15334;49.494;8.410;2023-05-10T12:54:31;20.00;99.90
28010;DHT22;15334;49.494;8.410;2023-05-10T12:56:59;20.10;99.90
28010;DHT22;15334;49.494;8.410;2023-05-10T12:59:27;20.20;99.90
28010;DHT22;15334;49.494;8.410;2023-05-10T13:01:56;20.20;99.90
28010;DHT22;15334;49.494;8.410;2023-05-10T13:04:25;20.10;99.90
28010;DHT22;15334;49.494;8.410;2023-05-10T13:06:54;19.90;99.90
28010;DHT22;15334;49.494;8.410;2023-05-10T13:09:25;19.90;99.90
28010;DHT22;15334;49.494;8.410;2023-05-10T13:11:55;20.00;99.90
28010;DHT22;15334;49.494;8.410;2023-05-10T13:14:24;20.30;99.90
28010;DHT22;15334;49.494;8.410;2023-05-10T13:16:52;20.90;99.90
28010;DHT22;15334;49.494;8.410;2023-05-10T13:19:22;21.20;99.90
28010;DHT22;15334;49.494;8.410;2023-05-10T13:21:51;21.50;99.90
28010;DHT22;15334;49.494;8.410;2023-05-10T13:24:20;21.40;99.90
28010;DHT22;15334;49.494;8.410;2023-05-10T13:26:48;21.70;99.90
28010;DHT22;15334;49.494;8.410;2023-05-10T13:29:16;22.30;99.90
28010;DHT22;15334;49.494;8.410;2023-05-10T13:31:45;22.70;99.90
28010;DHT22;15334;49.494;8.410;2023-05-10T13:34:13;22.80;99.90
28010;DHT22;15334;49.494;8.410;2023-05-10T13:36:41;23.20;99.90
28010;DHT22;15334;49.494;8.410;2023-05-10T13:39:10;23.50;99.90
28010;DHT22;15334;49.494;8.410;2023-05-10T13:41:38;23.20;99.00
28010;DHT22;15334;49.494;8.410;2023-05-10T13:44:06;22.70;97.60
28010;DHT22;15334;49.494;8.410;2023-05-10T13:46:34;22.60;97.80
28010;DHT22;15334;49.494;8.410;2023-05-10T13:49:03;22.30;96.80
28010;DHT22;15334;49.494;8.410;2023-05-10T13:51:31;21.90;97.90
28010;DHT22;15334;49.494;8.410;2023-05-10T13:53:59;21.80;99.30
28010;DHT22;15334;49.494;8.410;2023-05-10T13:56:28;21.90;99.90
28010;DHT22;15334;49.494;8.410;2023-05-10T13:58:57;21.90;99.90
28010;DHT22;15334;49.494;8.410;2023-05-10T14:01:25;21.80;98.80
28010;DHT22;15334;49.494;8.410;2023-05-10T14:03:53;21.80;99.90
28010;DHT22;15334;49.494;8.410;2023-05-10T14:06:21;21.90;98.50
28010;DHT22;15334;49.494;8.410;2023-05-10T14:08:49;21.80;96.20
28010;DHT22;15334;49.494;8.410;2023-05-10T14:11:17;21.60;97.90
28010;DHT22;15334;49.494;8.410;2023-05-10T14:13:47;21.70;99.20
28010;DHT22;15334;49.494;8.410;2023-05-10T14:16:14;21.80;99.90
28010;DHT22;15334;49.494;8.410;2023-05-10T14:18:42;21.60;96.60
28010;DHT22;15334;49.494;8.410;2023-05-10T14:21:10;21.20;96.60
28010;DHT22;15334;49.494;8.410;2023-05-10T14:23:38;21.00;98.90
28010;DHT22;15334;49.494;8.410;2023-05-10T14:26:06;21.00;97.70
28010;DHT22;15334;49.494;8.410;2023-05-10T14:28:35;20.70;97.40
28010;DHT22;15334;49.494;8.410;2023-05-10T14:31:04;20.50;96.70
28010;DHT22;15334;49.494;8.410;2023-05-10T14:33:33;20.50;99.90
28010;DHT22;15334;49.494;8.410;2023-05-10T14:36:01;20.50;99.00
28010;DHT22;15334;49.494;8.410;2023-05-10T14:38:30;20.60;97.90
28010;DHT22;15334;49.494;8.410;2023-05-10T14:40:58;20.70;98.50
28010;DHT22;15334;49.494;8.410;2023-05-10T14:43:26;20.70;99.90
28010;DHT22;15334;49.494;8.410;2023-05-10T14:45:54;20.80;98.20
28010;DHT22;15334;49.494;8.410;2023-05-10T14:48:24;20.70;99.90
28010;DHT22;15334;49.494;8.410;2023-05-10T14:50:52;20.70;98.80
28010;DHT22;15334;49.494;8.410;2023-05-10T14:53:20;20.60;99.90
28010;DHT22;15334;49.494;8.410;2023-05-10T14:55:48;20.60;97.80
28010;DHT22;15334;49.494;8.410;2023-05-10T14:58:16;20.60;99.90
28010;DHT22;15334;49.494;8.410;2023-05-10T15:00:44;20.60;97.50
28010;DHT22;15334;49.494;8.410;2023-05-10T15:03:13;20.50;99.50
28010;DHT22;15334;49.494;8.410;2023-05-10T15:05:43;20.50;95.80
28010;DHT22;15334;49.494;8.410;2023-05-10T15:08:11;20.50;97.10
28010;DHT22;15334;49.494;8.410;2023-05-10T15:10:39;20.60;98.80
28010;DHT22;15334;49.494;8.410;2023-05-10T15:13:07;20.80;99.90
28010;DHT22;15334;49.494;8.410;2023-05-10T15:15:35;20.70;99.90
28010;DHT22;15334;49.494;8.410;2023-05-10T15:18:03;20.70;98.50
28010;DHT22;15334;49.494;8.410;2023-05-10T15:20:32;20.90;97.30
28010;DHT22;15334;49.494;8.410;2023-05-10T15:23:01;21.00;99.90
28010;DHT22;15334;49.494;8.410;2023-05-10T15:25:29;21.10;96.90
28010;DHT22;15334;49.494;8.410;2023-05-10T15:27:57;20.90;94.50
28010;DHT22;15334;49.494;8.410;2023-05-10T15:30:25;20.60;94.80
28010;DHT22;15334;49.494;8.410;2023-05-10T15:32:53;20.50;95.30
28010;DHT22;15334;49.494;8.410;2023-05-10T15:35:22;20.60;96.80
28010;DHT22;15334;49.494;8.410;2023-05-10T15:37:50;20.60;95.70
28010;DHT22;15334;49.494;8.410;2023-05-10T15:40:19;20.70;94.90
28010;DHT22;15334;49.494;8.410;2023-05-10T15:42:47;20.60;95.60
28010;DHT22;15334;49.494;8.410;2023-05-10T15:45:15;20.50;95.80